createdAt,value
2019-01-10T00:00:53.551Z,72.01
2019-01-10T00:03:23.264Z,72.26
2019-01-10T00:05:52.824Z,72.26
2019-01-10T00:08:22.374Z,72.35
2019-01-10T00:10:51.943Z,72.77
2019-01-10T00:13:21.490Z,72.82
2019-01-10T00:15:51.035Z,72.74
2019-01-10T00:18:20.580Z,72.35
2019-01-10T00:20:50.223Z,72.21
2019-01-10T00:23:19.771Z,72.09
2019-01-10T00:25:49.384Z,72.14
2019-01-10T00:28:18.970Z,72.06
2019-01-10T00:30:48.480Z,71.94
2019-01-10T00:33:18.013Z,72.13
2019-01-10T00:35:47.568Z,72.37
2019-01-10T00:38:18.437Z,72.70
2019-01-10T00:40:48.554Z,72.85
2019-01-10T00:43:18.083Z,73.04
2019-01-10T00:45:47.656Z,72.93
2019-01-10T00:48:17.214Z,73.27
2019-01-10T00:50:46.753Z,73.48
2019-01-10T00:53:16.318Z,73.32
2019-01-10T00:55:45.835Z,73.18
2019-01-10T00:58:15.402Z,73.13
2019-01-10T01:00:44.969Z,72.90
2019-01-10T01:03:14.803Z,73.12
2019-01-10T01:05:45.875Z,72.79
2019-01-10T01:08:15.437Z,72.95
2019-01-10T01:10:45.058Z,73.02
2019-01-10T01:13:14.628Z,73.21
2019-01-10T01:15:44.155Z,73.40
2019-01-10T01:18:13.721Z,73.82
2019-01-10T01:20:43.510Z,73.94
2019-01-10T01:23:13.050Z,73.86
2019-01-10T01:25:43.688Z,74.06
2019-01-10T01:28:13.318Z,74.09
2019-01-10T01:30:42.848Z,74.31
2019-01-10T01:33:12.400Z,74.26
2019-01-10T01:35:41.963Z,74.09
2019-01-10T01:38:11.497Z,74.25
2019-01-10T01:40:41.031Z,74.18
2019-01-10T01:43:10.657Z,74.22
2019-01-10T01:45:40.254Z,74.23
2019-01-10T01:48:09.800Z,74.45
2019-01-10T01:50:39.440Z,74.39
2019-01-10T01:53:08.974Z,74.29
2019-01-10T01:55:38.542Z,74.27
2019-01-10T01:58:08.096Z,74.10
2019-01-10T02:00:38.108Z,74.19
2019-01-10T02:03:07.963Z,74.13
2019-01-10T02:05:37.553Z,74.18
2019-01-10T02:08:07.115Z,74.14
2019-01-10T02:10:36.735Z,74.23
2019-01-10T02:13:06.301Z,74.10
2019-01-10T02:15:35.863Z,74.53
2019-01-10T02:18:05.429Z,74.52
2019-01-10T02:20:35.020Z,74.43
2019-01-10T02:23:04.533Z,74.57
2019-01-10T02:25:34.102Z,74.36
2019-01-10T02:28:03.659Z,74.66
2019-01-10T02:30:41.818Z,74.40
2019-01-10T02:33:04.903Z,74.41
2019-01-10T02:35:34.811Z,74.54
2019-01-10T02:38:04.362Z,74.76
2019-01-10T02:40:33.903Z,74.87
2019-01-10T02:43:03.441Z,74.56
2019-01-10T02:45:33.246Z,74.40
2019-01-10T02:48:03.047Z,74.34
2019-01-10T02:50:32.794Z,74.22
2019-01-10T02:53:02.317Z,74.19
2019-01-10T02:55:31.857Z,74.65
2019-01-10T02:58:01.400Z,74.97
2019-01-10T03:00:31.583Z,75.01
2019-01-10T03:03:01.227Z,74.96
2019-01-10T03:05:30.935Z,74.77
2019-01-10T03:08:00.482Z,74.85
2019-01-10T03:10:30.190Z,74.82
2019-01-10T03:12:59.727Z,74.65
2019-01-10T03:15:29.266Z,74.78
2019-01-10T03:17:58.827Z,75.09
2019-01-10T03:20:28.360Z,75.20
2019-01-10T03:22:57.903Z,75.17
2019-01-10T03:25:27.440Z,75.05
2019-01-10T03:27:57.003Z,75.22
2019-01-10T03:30:26.883Z,75.10
2019-01-10T03:32:56.466Z,75.03
2019-01-10T03:35:26.991Z,75.29
2019-01-10T03:37:56.543Z,75.25
2019-01-10T03:40:26.100Z,75.04
2019-01-10T03:42:55.647Z,75.08
2019-01-10T03:45:25.349Z,75.17
2019-01-10T03:47:55.192Z,75.27
2019-01-10T03:50:24.687Z,75.55
2019-01-10T03:52:54.250Z,75.67
2019-01-10T03:55:23.783Z,75.77
2019-01-10T03:57:53.339Z,75.96
2019-01-10T04:00:23.777Z,76.24
2019-01-10T04:02:53.340Z,76.29
2019-01-10T04:05:22.894Z,76.48
2019-01-10T04:07:52.559Z,76.50
2019-01-10T04:10:22.114Z,76.53
2019-01-10T04:12:51.781Z,76.39
2019-01-10T04:15:21.269Z,76.42
2019-01-10T04:17:50.854Z,76.36
2019-01-10T04:20:20.468Z,76.24
2019-01-10T04:22:50.025Z,76.28
2019-01-10T04:25:19.569Z,76.09
2019-01-10T04:27:49.135Z,75.92
2019-01-10T04:30:19.880Z,76.20
2019-01-10T04:32:49.422Z,75.89
2019-01-10T04:35:19.052Z,75.53
2019-01-10T04:37:48.590Z,75.53
2019-01-10T04:40:19.695Z,75.76
2019-01-10T04:42:49.231Z,76.10
2019-01-10T04:45:18.838Z,76.10
2019-01-10T04:48:37.559Z,76.02
2019-01-10T04:51:07.109Z,75.88
2019-01-10T04:53:36.631Z,76.26
2019-01-10T04:56:06.257Z,76.34
2019-01-10T04:58:35.800Z,76.54
2019-01-10T05:01:05.421Z,76.33
2019-01-10T05:03:34.975Z,76.42
2019-01-10T05:06:04.791Z,76.39
2019-01-10T05:08:34.331Z,76.41
2019-01-10T05:11:03.865Z,76.56
2019-01-10T05:13:33.409Z,76.50
2019-01-10T05:16:02.962Z,76.62
2019-01-10T05:18:32.528Z,76.33
2019-01-10T05:21:02.061Z,76.17
2019-01-10T05:23:31.638Z,76.06
2019-01-10T05:26:01.188Z,76.26
2019-01-10T05:28:30.725Z,76.53
2019-01-10T05:31:00.260Z,76.54
2019-01-10T05:33:29.809Z,76.42
2019-01-10T05:35:59.557Z,76.82
2019-01-10T05:38:29.195Z,77.08
2019-01-10T05:40:58.764Z,76.88
2019-01-10T05:43:28.306Z,76.76
2019-01-10T05:45:57.872Z,76.94
2019-01-10T05:48:27.406Z,76.92
2019-01-10T05:50:57.274Z,76.97
2019-01-10T05:53:26.830Z,76.96
2019-01-10T05:55:56.354Z,76.91
2019-01-10T05:58:25.893Z,76.76
2019-01-10T06:00:55.436Z,76.92
2019-01-10T06:03:24.978Z,76.90
2019-01-10T06:05:54.506Z,76.69
2019-01-10T06:08:24.058Z,76.38
2019-01-10T06:10:53.581Z,76.21
2019-01-10T06:13:23.141Z,76.12
2019-01-10T06:15:52.667Z,76.33
2019-01-10T06:18:22.195Z,76.35
2019-01-10T06:20:51.736Z,76.40
2019-01-10T06:23:21.290Z,76.30
2019-01-10T06:25:50.813Z,76.16
2019-01-10T06:28:20.376Z,76.28
2019-01-10T06:30:49.925Z,76.20
2019-01-10T06:33:19.447Z,76.28
2019-01-10T06:35:51.295Z,76.34
2019-01-10T06:38:20.835Z,76.61
2019-01-10T06:40:50.394Z,76.89
2019-01-10T06:43:20.183Z,77.33
2019-01-10T06:45:50.868Z,77.17
2019-01-10T06:48:20.416Z,77.13
2019-01-10T06:50:49.939Z,77.16
2019-01-10T06:53:19.477Z,76.97
2019-01-10T06:55:49.049Z,76.68
2019-01-10T06:58:18.566Z,76.52
2019-01-10T07:00:48.111Z,76.69
2019-01-10T07:03:17.663Z,76.54
2019-01-10T07:05:47.269Z,76.61
2019-01-10T07:08:16.816Z,76.70
2019-01-10T07:10:46.592Z,76.63
2019-01-10T07:13:16.172Z,76.44
2019-01-10T07:15:45.931Z,76.42
2019-01-10T07:18:15.421Z,76.34
2019-01-10T07:20:44.972Z,76.41
2019-01-10T07:23:14.499Z,76.66
2019-01-10T07:25:44.125Z,76.78
2019-01-10T07:28:25.471Z,76.86
2019-01-10T07:30:56.027Z,76.71
2019-01-10T07:33:25.618Z,76.68
2019-01-10T07:35:58.181Z,76.82
2019-01-10T07:38:27.672Z,76.98
2019-01-10T07:40:57.344Z,76.91
2019-01-10T07:43:27.158Z,76.75
2019-01-10T07:45:57.287Z,76.87
2019-01-10T07:48:27.020Z,77.02
2019-01-10T07:50:56.515Z,76.92
2019-01-10T07:53:26.318Z,76.91
2019-01-10T07:55:58.086Z,76.79
2019-01-10T07:58:27.618Z,76.88
2019-01-10T08:00:57.162Z,76.96
2019-01-10T08:03:26.723Z,76.96
2019-01-10T08:05:56.262Z,77.03
2019-01-10T08:08:25.985Z,77.09
2019-01-10T08:10:55.784Z,77.06
2019-01-10T08:13:25.316Z,76.86
2019-01-10T08:15:54.877Z,76.94
2019-01-10T08:18:24.420Z,77.08
2019-01-10T08:20:53.966Z,77.07
2019-01-10T08:23:23.504Z,77.04
2019-01-10T08:25:53.062Z,77.15
2019-01-10T08:28:22.599Z,77.19
2019-01-10T08:30:52.139Z,77.17
2019-01-10T08:33:21.690Z,77.25
2019-01-10T08:35:51.477Z,77.52
2019-01-10T08:38:21.041Z,77.57
2019-01-10T08:40:51.727Z,77.73
2019-01-10T08:43:21.287Z,77.89
2019-01-10T08:45:50.818Z,78.02
2019-01-10T08:48:23.420Z,77.94
2019-01-10T08:50:52.940Z,77.80
2019-01-10T08:53:22.467Z,77.87
2019-01-10T08:55:52.040Z,77.85
2019-01-10T08:58:21.565Z,77.65
2019-01-10T09:00:51.103Z,77.80
2019-01-10T09:03:20.660Z,77.66
2019-01-10T09:05:51.765Z,77.56
2019-01-10T09:08:21.312Z,77.52
2019-01-10T09:10:50.855Z,77.56
2019-01-10T09:13:20.387Z,77.65
2019-01-10T09:15:49.924Z,77.49
2019-01-10T09:18:19.455Z,77.35
2019-01-10T09:20:49.006Z,77.03
2019-01-10T09:23:18.593Z,76.77
2019-01-10T09:25:48.657Z,76.99
2019-01-10T09:28:18.178Z,77.30
2019-01-10T09:30:48.057Z,77.14
2019-01-10T09:33:17.605Z,77.27
2019-01-10T09:35:48.435Z,77.26
2019-01-10T09:38:17.951Z,77.31
2019-01-10T09:40:47.491Z,77.32
2019-01-10T09:43:17.026Z,77.24
2019-01-10T09:45:46.553Z,77.07
2019-01-10T09:48:16.141Z,76.85
2019-01-10T09:50:45.669Z,76.86
2019-01-10T09:53:15.248Z,76.85
2019-01-10T09:55:44.789Z,76.98
2019-01-10T09:58:14.665Z,76.70
2019-01-10T10:00:44.215Z,76.79
2019-01-10T10:03:13.733Z,76.94
2019-01-10T10:05:43.291Z,77.02
2019-01-10T10:08:12.835Z,76.88
2019-01-10T10:10:42.390Z,76.78
2019-01-10T10:13:11.935Z,76.96
2019-01-10T10:15:41.470Z,76.93
2019-01-10T10:18:10.998Z,77.16
2019-01-10T10:20:40.547Z,77.04
2019-01-10T10:23:10.153Z,76.93
2019-01-10T10:25:39.767Z,76.75
2019-01-10T10:28:09.345Z,76.90
2019-01-10T10:30:38.895Z,76.84
2019-01-10T10:33:08.439Z,76.68
2019-01-10T10:35:37.983Z,76.68
2019-01-10T10:38:07.510Z,76.49
2019-01-10T10:40:37.089Z,76.48
2019-01-10T10:43:06.629Z,76.53
2019-01-10T10:45:36.167Z,76.26
2019-01-10T10:48:07.075Z,76.08
2019-01-10T10:50:37.871Z,76.32
2019-01-10T10:53:08.666Z,76.11
2019-01-10T10:55:38.675Z,76.12
2019-01-10T10:58:08.882Z,75.48
2019-01-10T11:00:39.164Z,75.57
2019-01-10T11:03:09.028Z,75.60
2019-01-10T11:05:39.143Z,75.21
2019-01-10T11:08:08.685Z,75.17
2019-01-10T11:10:38.236Z,75.09
2019-01-10T11:13:07.853Z,75.16
2019-01-10T11:15:37.391Z,74.62
2019-01-10T11:18:07.064Z,74.24
2019-01-10T11:20:36.599Z,74.27
2019-01-10T11:23:10.790Z,74.34
2019-01-10T11:25:38.035Z,74.50
2019-01-10T11:28:07.636Z,74.51
2019-01-10T11:30:37.163Z,73.79
2019-01-10T11:33:06.762Z,73.86
2019-01-10T11:35:36.288Z,73.71
2019-01-10T11:38:05.835Z,73.29
2019-01-10T11:40:35.373Z,73.49
2019-01-10T11:43:04.965Z,73.50
2019-01-10T11:45:34.506Z,73.35
2019-01-10T11:48:04.033Z,73.71
2019-01-10T11:50:33.587Z,73.78
2019-01-10T11:53:03.118Z,73.84
2019-01-10T11:55:32.673Z,73.72
2019-01-10T11:58:02.193Z,73.45
2019-01-10T12:00:31.924Z,73.38
2019-01-10T12:03:01.472Z,73.29
2019-01-10T12:05:31.015Z,73.53
2019-01-10T12:08:01.308Z,73.54
2019-01-10T12:10:32.691Z,73.89
2019-01-10T12:13:02.616Z,74.71
2019-01-10T12:15:32.240Z,74.56
2019-01-10T12:18:01.787Z,74.62
2019-01-10T12:20:31.318Z,74.33
2019-01-10T12:23:00.870Z,74.31
2019-01-10T12:25:30.411Z,74.71
2019-01-10T12:27:59.953Z,74.47
2019-01-10T12:30:29.497Z,74.46
2019-01-10T12:32:59.030Z,74.84
2019-01-10T12:35:28.557Z,74.69
2019-01-10T12:37:58.081Z,74.51
2019-01-10T12:40:27.651Z,74.01
2019-01-10T12:42:57.185Z,74.07
2019-01-10T12:45:26.825Z,74.33
2019-01-10T12:47:56.355Z,74.78
2019-01-10T12:50:29.136Z,75.05
2019-01-10T12:52:58.855Z,74.87
2019-01-10T12:55:28.400Z,74.62
2019-01-10T12:57:57.963Z,74.56
2019-01-10T13:00:27.538Z,74.59
2019-01-10T13:02:57.667Z,74.73
2019-01-10T13:05:27.334Z,74.66
2019-01-10T13:08:03.321Z,74.57
2019-01-10T13:10:28.158Z,74.42
2019-01-10T13:12:57.741Z,74.44
2019-01-10T13:15:27.611Z,73.87
2019-01-10T13:17:57.147Z,74.02
2019-01-10T13:20:26.762Z,74.44
2019-01-10T13:22:56.312Z,74.40
2019-01-10T13:25:25.935Z,74.38
2019-01-10T13:27:57.196Z,74.13
2019-01-10T13:30:30.175Z,73.87
2019-01-10T13:33:00.389Z,73.59
2019-01-10T13:35:29.888Z,73.45
2019-01-10T13:37:59.543Z,73.31
2019-01-10T13:40:29.161Z,73.12
2019-01-10T13:42:58.696Z,72.93
2019-01-10T13:45:28.373Z,73.03
2019-01-10T13:48:00.122Z,73.11
2019-01-10T13:50:29.940Z,73.40
2019-01-10T13:52:59.491Z,73.61
2019-01-10T13:55:29.161Z,73.79
2019-01-10T13:57:58.870Z,73.92
2019-01-10T14:00:35.378Z,74.30
2019-01-10T14:03:01.599Z,74.05
2019-01-10T14:05:31.283Z,73.98
2019-01-10T14:08:00.813Z,73.86
2019-01-10T14:10:30.503Z,73.82
2019-01-10T14:13:00.025Z,73.97
2019-01-10T14:15:31.428Z,73.81
2019-01-10T14:18:01.065Z,73.73
2019-01-10T14:20:30.709Z,73.64
2019-01-10T14:23:00.379Z,73.87
2019-01-10T14:25:29.997Z,73.94
2019-01-10T14:27:59.982Z,73.81
2019-01-10T14:30:33.414Z,73.49
2019-01-10T14:33:03.020Z,73.34
2019-01-10T14:35:32.633Z,73.05
2019-01-10T14:38:02.238Z,72.93
2019-01-10T14:40:31.947Z,73.02
2019-01-10T14:43:01.483Z,73.09
2019-01-10T14:45:31.025Z,73.14
2019-01-10T14:48:01.941Z,73.37
2019-01-10T14:50:31.688Z,73.48
2019-01-10T14:53:01.203Z,73.70
2019-01-10T14:55:30.834Z,73.82
2019-01-10T14:58:00.453Z,73.89
2019-01-10T15:00:30.132Z,74.01
2019-01-10T15:02:59.749Z,73.99
2019-01-10T15:05:34.372Z,73.88
2019-01-10T15:08:00.671Z,73.89
2019-01-10T15:10:30.274Z,73.79
2019-01-10T15:12:59.890Z,73.55
2019-01-10T15:15:29.419Z,73.56
2019-01-10T15:18:01.835Z,73.77
2019-01-10T15:20:34.300Z,73.77
2019-01-10T15:23:03.858Z,73.70
2019-01-10T15:25:33.396Z,73.57
2019-01-10T15:28:02.975Z,73.46
2019-01-10T15:30:32.508Z,73.35
2019-01-10T15:33:02.059Z,73.24
2019-01-10T15:35:32.040Z,73.17
2019-01-10T15:38:01.582Z,73.18
2019-01-10T15:40:32.237Z,73.26
2019-01-10T15:43:02.000Z,73.37
2019-01-10T15:45:31.599Z,73.50
2019-01-10T15:48:01.205Z,73.58
2019-01-10T15:50:32.623Z,73.61
2019-01-10T15:53:02.189Z,73.58
2019-01-10T15:55:32.899Z,73.58
2019-01-10T15:58:03.031Z,73.62
2019-01-10T16:00:33.083Z,73.61
2019-01-10T16:03:04.315Z,73.62
2019-01-10T16:05:33.833Z,73.72
2019-01-10T16:08:03.457Z,73.86
2019-01-10T16:10:32.992Z,73.98
2019-01-10T16:13:02.535Z,74.12
2019-01-10T16:15:32.080Z,74.21
2019-01-10T16:18:01.635Z,74.21
2019-01-10T16:20:31.180Z,74.24
2019-01-10T16:23:00.721Z,74.24
2019-01-10T16:25:30.269Z,74.23
2019-01-10T16:27:59.868Z,74.15
2019-01-10T16:30:29.743Z,74.14
2019-01-10T16:32:59.372Z,74.18
2019-01-10T16:35:28.904Z,74.19
2019-01-10T16:37:58.455Z,74.17
2019-01-10T16:40:27.993Z,74.10
2019-01-10T16:42:57.560Z,74.04
2019-01-10T16:45:28.567Z,74.07
2019-01-10T16:47:58.089Z,74.11
2019-01-10T16:50:27.681Z,74.13
2019-01-10T16:52:57.304Z,74.12
2019-01-10T16:55:26.848Z,74.07
2019-01-10T16:57:57.903Z,73.98
2019-01-10T17:00:32.767Z,73.98
2019-01-10T17:03:02.286Z,73.98
2019-01-10T17:05:31.972Z,73.94
2019-01-10T17:08:01.520Z,73.98
2019-01-10T17:10:31.078Z,74.04
2019-01-10T17:13:00.613Z,74.00
2019-01-10T17:15:30.147Z,73.99
2019-01-10T17:17:59.713Z,74.04
2019-01-10T17:20:29.250Z,74.08
2019-01-10T17:22:58.846Z,74.23
2019-01-10T17:25:28.483Z,74.38
2019-01-10T17:27:58.000Z,74.39
2019-01-10T17:30:29.291Z,74.45
2019-01-10T17:32:59.013Z,74.49
2019-01-10T17:35:31.071Z,74.51
2019-01-10T17:38:00.677Z,74.54
2019-01-10T17:40:30.331Z,74.60
2019-01-10T17:43:00.200Z,74.67
2019-01-10T17:45:32.517Z,74.77
2019-01-10T17:48:02.315Z,74.74
2019-01-10T17:50:31.920Z,74.71
2019-01-10T17:53:01.548Z,74.80
2019-01-10T17:55:31.929Z,74.84
2019-01-10T17:58:02.825Z,74.90
2019-01-10T18:00:32.353Z,75.00
2019-01-10T18:03:01.879Z,75.09
2019-01-10T18:05:32.508Z,75.08
2019-01-10T18:08:02.010Z,75.10
2019-01-10T18:10:31.547Z,75.12
2019-01-10T18:13:01.083Z,75.23
2019-01-10T18:15:31.624Z,75.34
2019-01-10T18:18:01.251Z,75.46
2019-01-10T18:20:36.879Z,75.51
2019-01-10T18:23:06.755Z,75.53
2019-01-10T18:25:36.290Z,75.64
2019-01-10T18:28:06.395Z,75.65
2019-01-10T18:30:35.926Z,75.60
2019-01-10T18:33:06.194Z,75.65
2019-01-10T18:35:36.422Z,75.69
2019-01-10T18:38:06.105Z,75.66
2019-01-10T18:40:35.659Z,75.65
2019-01-10T18:43:05.403Z,75.80
2019-01-10T18:45:35.094Z,75.95
2019-01-10T18:48:04.846Z,75.98
2019-01-10T18:50:34.408Z,75.87
2019-01-10T18:53:04.031Z,75.88
2019-01-10T18:55:33.563Z,75.93
2019-01-10T18:58:03.110Z,76.19
2019-01-10T19:00:32.709Z,76.21
2019-01-10T19:03:02.313Z,76.54
2019-01-10T19:05:32.150Z,76.61
2019-01-10T19:08:01.699Z,76.51
2019-01-10T19:10:31.272Z,76.54
2019-01-10T19:13:00.800Z,76.43
2019-01-10T19:15:30.438Z,76.36
2019-01-10T19:18:03.555Z,76.42
2019-01-10T19:20:31.272Z,76.53
2019-01-10T19:23:00.905Z,76.82
2019-01-10T19:25:30.447Z,76.95
2019-01-10T19:28:00.030Z,77.28
2019-01-10T19:30:30.912Z,77.12
2019-01-10T19:33:01.328Z,77.21
2019-01-10T19:35:31.034Z,77.09
2019-01-10T19:38:01.565Z,77.28
2019-01-10T19:40:31.170Z,77.40
2019-01-10T19:43:00.701Z,77.34
2019-01-10T19:45:30.272Z,77.31
2019-01-10T19:47:59.834Z,77.30
2019-01-10T19:50:29.374Z,77.41
2019-01-10T19:52:59.225Z,77.52
2019-01-10T19:55:28.853Z,77.95
2019-01-10T19:57:58.733Z,78.19
2019-01-10T20:00:35.217Z,78.05
2019-01-10T20:03:05.037Z,78.20
2019-01-10T20:05:34.581Z,78.12
2019-01-10T20:08:04.254Z,78.08
2019-01-10T20:10:33.809Z,78.20
2019-01-10T20:13:03.400Z,78.29
2019-01-10T20:15:32.960Z,78.34
2019-01-10T20:18:02.508Z,78.36
2019-01-10T20:20:38.020Z,78.58
2019-01-10T20:23:09.691Z,78.61
2019-01-10T20:25:39.969Z,78.70
2019-01-10T20:28:10.083Z,78.86
2019-01-10T20:30:42.382Z,78.84
2019-01-10T20:33:13.152Z,79.04
2019-01-10T20:35:43.759Z,79.31
2019-01-10T20:38:14.558Z,79.29
2019-01-10T20:40:44.893Z,79.35
2019-01-10T20:43:15.762Z,79.72
2019-01-10T20:45:46.607Z,80.08
2019-01-10T20:48:22.424Z,79.91
2019-01-10T20:50:49.770Z,79.85
2019-01-10T20:53:20.672Z,79.85
2019-01-10T20:55:51.319Z,79.89
2019-01-10T20:58:22.668Z,79.79
2019-01-10T21:00:54.355Z,79.78
2019-01-10T21:03:24.824Z,79.76
2019-01-10T21:05:55.470Z,79.70
2019-01-10T21:08:27.834Z,79.68
2019-01-10T21:11:02.265Z,79.61
2019-01-10T21:13:32.860Z,79.60
2019-01-10T21:16:03.961Z,79.68
2019-01-10T21:18:34.734Z,79.56
2019-01-10T21:21:05.423Z,79.60
2019-01-10T21:23:35.879Z,79.64
2019-01-10T21:26:06.706Z,79.71
2019-01-10T21:28:37.463Z,79.91
2019-01-10T21:31:09.002Z,80.06
2019-01-10T21:33:39.646Z,79.99
2019-01-10T21:36:10.459Z,79.97
2019-01-10T21:38:41.272Z,80.25
2019-01-10T21:41:13.033Z,80.28
2019-01-10T21:43:43.712Z,80.24
2019-01-10T21:46:17.212Z,80.24
2019-01-10T21:48:47.806Z,80.23
2019-01-10T21:51:18.010Z,80.16
2019-01-10T21:53:49.664Z,80.21
2019-01-10T21:56:20.035Z,80.30
2019-01-10T21:58:50.010Z,80.33
2019-01-10T22:01:23.535Z,80.31
2019-01-10T22:03:53.608Z,80.27
2019-01-10T22:06:23.280Z,80.27
2019-01-10T22:08:53.429Z,80.35
2019-01-10T22:11:24.762Z,80.44
2019-01-10T22:13:55.072Z,80.49
2019-01-10T22:16:25.640Z,80.50
2019-01-10T22:18:56.057Z,80.53
2019-01-10T22:21:25.683Z,80.52
2019-01-10T22:23:55.581Z,80.51
2019-01-10T22:26:25.554Z,80.54
2019-01-10T22:28:55.115Z,80.65
2019-01-10T22:31:24.886Z,80.67
2019-01-10T22:33:55.996Z,80.72
2019-01-10T22:36:25.574Z,80.99
2019-01-10T22:38:55.114Z,81.11
2019-01-10T22:41:24.662Z,81.12
2019-01-10T22:43:54.211Z,81.22
2019-01-10T22:46:23.770Z,81.23
2019-01-10T22:48:53.444Z,81.21
2019-01-10T22:51:22.969Z,81.29
2019-01-10T22:53:52.688Z,81.34
2019-01-10T22:56:22.243Z,81.38
2019-01-10T22:58:51.758Z,81.41
2019-01-10T23:01:25.912Z,81.40
2019-01-10T23:03:55.498Z,81.51
2019-01-10T23:06:25.126Z,81.87
2019-01-10T23:08:54.661Z,82.33
2019-01-10T23:11:24.559Z,82.49
2019-01-10T23:13:56.616Z,82.52
2019-01-10T23:16:26.146Z,82.77
2019-01-10T23:18:55.741Z,82.78
2019-01-10T23:21:25.428Z,82.76
2019-01-10T23:24:00.920Z,82.74
2019-01-10T23:26:30.451Z,82.84
2019-01-10T23:28:59.998Z,82.77
2019-01-10T23:31:29.530Z,82.85
2019-01-10T23:34:03.856Z,83.09
2019-01-10T23:36:33.512Z,83.15
2019-01-10T23:39:15.038Z,83.25
2019-01-10T23:41:44.583Z,83.06
2019-01-10T23:44:14.211Z,82.79
2019-01-10T23:46:43.887Z,82.79
2019-01-10T23:49:13.423Z,82.72
2019-01-10T23:51:43.190Z,82.68
2019-01-10T23:54:12.859Z,82.67
2019-01-10T23:56:42.473Z,82.78
2019-01-10T23:59:12.008Z,82.75
